Time;durP1;ratioP1;P1;durP2;ratioP2;P2;SDS_P1;SDS_P2;PMS_P1;PMS_P2;Temp;Humidity;BMP_temperature;BMP_pressure;BME280_temperature;BME280_humidity;BME280_pressure;Samples;Min_cycle;Max_cycle;Signal;HPM_P1;HPM_P2
2021/12/26 00:01:43;;;;;;;4.88;2.88;;;;;;;-2.79;54.66;100866.66;7391952;19;20022;-62
2021/12/26 00:04:14;;;;;;;4.63;2.67;;;;;;;-2.81;55.07;100870.03;7393846;19;20023;-57
2021/12/26 00:06:48;;;;;;;4.55;2.67;;;;;;;-2.74;55.21;100873.53;7389239;19;20029;-62
2021/12/26 00:09:17;;;;;;;5.75;2.95;;;;;;;-2.78;54.89;100873.50;7390534;19;20030;-62
2021/12/26 00:11:46;;;;;;;4.78;2.50;;;;;;;-2.71;55.31;100881.25;7393693;19;20355;-62
2021/12/26 00:14:14;;;;;;;4.80;3.03;;;;;;;-2.68;55.24;100877.03;7394813;19;20603;-60
2021/12/26 00:16:45;;;;;;;5.10;2.78;;;;;;;-2.66;55.26;100877.06;7390665;19;20080;-60
2021/12/26 00:19:14;;;;;;;5.53;2.72;;;;;;;-2.65;55.30;100882.19;7391257;19;20007;-60
2021/12/26 00:21:47;;;;;;;6.22;2.88;;;;;;;-2.62;55.88;100874.53;7391754;19;20018;-63
2021/12/26 00:24:15;;;;;;;5.45;2.80;;;;;;;-2.62;56.78;100869.41;7394231;19;20042;-63
2021/12/26 00:26:44;;;;;;;4.32;2.50;;;;;;;-2.54;57.69;100869.47;7391830;19;20014;-61
2021/12/26 00:29:13;;;;;;;4.70;2.80;;;;;;;-2.57;55.93;100871.16;7391525;19;20014;-62
2021/12/26 00:31:42;;;;;;;5.88;2.67;;;;;;;-2.61;55.20;100868.56;7394181;19;20006;-61
2021/12/26 00:34:11;;;;;;;4.93;2.80;;;;;;;-2.59;56.10;100865.13;7391082;19;20014;-60
2021/12/26 00:36:40;;;;;;;3.97;2.55;;;;;;;-2.61;55.89;100866.00;7392982;19;20018;-60
2021/12/26 00:39:12;;;;;;;4.63;2.90;;;;;;;-2.58;55.49;100870.28;7390717;19;20014;-62
2021/12/26 00:41:40;;;;;;;5.45;2.92;;;;;;;-2.59;55.23;100860.88;7391409;19;20355;-60
2021/12/26 00:44:10;;;;;;;5.18;2.72;;;;;;;-2.62;55.77;100854.00;7390739;19;20043;-57
2021/12/26 00:46:39;;;;;;;4.47;2.78;;;;;;;-2.60;55.69;100864.28;7389868;19;20011;-59
2021/12/26 00:49:08;;;;;;;4.20;2.60;;;;;;;-2.62;55.56;100860.88;7392390;19;20475;-61
2021/12/26 00:51:37;;;;;;;4.30;2.90;;;;;;;-2.58;56.04;100857.47;7392991;19;20011;-60
2021/12/26 00:54:06;;;;;;;4.35;2.72;;;;;;;-2.55;56.44;100865.22;7390986;19;20022;-61
2021/12/26 00:56:38;;;;;;;4.32;2.55;;;;;;;-2.53;56.85;100847.28;7390247;19;20021;-57
2021/12/26 00:59:07;;;;;;;6.10;3.15;;;;;;;-2.57;55.87;100856.63;7393104;19;20025;-59
2021/12/26 01:01:36;;;;;;;4.75;2.75;;;;;;;-2.65;55.72;100846.28;7391994;19;20021;-56
2021/12/26 01:04:05;;;;;;;4.68;2.70;;;;;;;-2.67;55.63;100844.56;7390447;19;20030;-58
2021/12/26 01:06:34;;;;;;;5.85;3.10;;;;;;;-2.68;55.93;100843.69;7389904;19;20015;-56
2021/12/26 01:09:03;;;;;;;3.92;2.50;;;;;;;-2.69;55.93;100836.84;7392939;19;20021;-59
2021/12/26 01:11:37;;;;;;;4.55;2.80;;;;;;;-2.73;55.24;100840.22;7391118;19;20041;-60
2021/12/26 01:14:14;;;;;;;5.68;2.88;;;;;;;-2.73;56.31;100840.22;7389961;19;20046;-59
2021/12/26 01:16:44;;;;;;;4.03;2.70;;;;;;;-2.68;55.94;100837.69;7386532;19;20025;-60
2021/12/26 01:19:15;;;;;;;4.57;2.92;;;;;;;-2.75;54.71;100836.78;7390411;19;20095;-58
2021/12/26 01:21:46;;;;;;;4.85;2.95;;;;;;;-2.79;55.01;100830.75;7390033;19;20018;-60
2021/12/26 01:24:17;;;;;;;4.78;2.85;;;;;;;-2.86;54.79;100834.09;7390285;19;20023;-63
2021/12/26 01:26:46;;;;;;;3.97;2.70;;;;;;;-2.90;55.25;100834.06;7388313;19;20030;-58
2021/12/26 01:29:17;;;;;;;6.15;2.60;;;;;;;-2.85;55.71;100845.19;7391899;19;20056;-59
2021/12/26 01:31:46;;;;;;;4.57;2.65;;;;;;;-2.81;56.07;100837.59;7390202;19;20014;-60
2021/12/26 01:34:15;;;;;;;4.50;2.53;;;;;;;-2.77;55.95;100841.03;7389477;19;20530;-56
2021/12/26 01:36:44;;;;;;;3.97;2.60;;;;;;;-2.73;56.02;100836.81;7388479;19;20108;-55
2021/12/26 01:39:13;;;;;;;3.88;2.47;;;;;;;-2.70;56.00;100839.41;7389641;19;20019;-59
2021/12/26 01:41:43;;;;;;;4.28;2.55;;;;;;;-2.71;55.25;100850.50;7389290;19;20066;-59
2021/12/26 01:44:14;;;;;;;5.55;2.40;;;;;;;-2.70;54.98;100847.09;7388641;19;20021;-58
2021/12/26 01:46:48;;;;;;;5.97;2.67;;;;;;;-2.69;55.08;100848.81;7388231;19;20094;-62
2021/12/26 01:49:19;;;;;;;5.20;2.60;;;;;;;-2.71;54.89;100853.06;7388524;19;20048;-59
2021/12/26 01:51:50;;;;;;;6.47;2.58;;;;;;;-2.84;54.58;100854.63;7387973;19;20099;-61
2021/12/26 01:54:29;;;;;;;3.95;2.42;;;;;;;-2.79;54.94;100864.09;7388676;19;20476;-56
2021/12/26 01:56:59;;;;;;;4.32;2.33;;;;;;;-2.76;55.14;100855.56;7388480;19;20026;-62
2021/12/26 01:59:29;;;;;;;4.80;2.65;;;;;;;-2.68;56.38;100855.66;7388364;19;20015;-59
2021/12/26 02:02:02;;;;;;;5.05;2.53;;;;;;;-2.68;55.48;100850.50;7387749;19;20014;-56
2021/12/26 02:04:31;;;;;;;5.18;2.80;;;;;;;-2.70;55.76;100844.53;7387912;19;20022;-57
2021/12/26 02:07:01;;;;;;;4.50;2.72;;;;;;;-2.70;56.42;100849.66;7389613;19;20014;-61
2021/12/26 02:09:30;;;;;;;3.80;2.50;;;;;;;-2.81;54.75;100855.53;7390478;19;20017;-62
2021/12/26 02:11:59;;;;;;;5.65;2.80;;;;;;;-2.84;55.01;100852.06;7390314;19;20014;-61
2021/12/26 02:14:28;;;;;;;4.30;2.55;;;;;;;-2.80;55.64;100846.97;7390484;19;20090;-60
2021/12/26 02:16:57;;;;;;;5.75;2.80;;;;;;;-2.80;55.33;100854.66;7387901;19;20021;-61
2021/12/26 02:19:29;;;;;;;4.82;2.50;;;;;;;-2.76;55.42;100850.44;7390228;19;20018;-62
2021/12/26 02:22:07;;;;;;;5.95;2.80;;;;;;;-2.74;55.70;100845.34;7387766;19;20011;-62
2021/12/26 02:25:08;;;;;;;5.50;2.83;;;;;;;-2.76;55.17;100844.47;7388722;19;20353;-60
2021/12/26 02:27:32;;;;;;;5.15;2.55;;;;;;;-2.78;54.90;100840.19;7389414;19;20085;-63
2021/12/26 02:30:02;;;;;;;4.80;2.53;;;;;;;-2.78;55.32;100837.63;7390508;19;20035;-62
2021/12/26 02:32:31;;;;;;;5.18;2.72;;;;;;;-2.79;55.20;100835.88;7390564;19;20020;-62
2021/12/26 02:35:00;;;;;;;4.68;2.65;;;;;;;-2.89;54.49;100836.63;7391535;19;20478;-61
2021/12/26 02:37:31;;;;;;;4.68;2.45;;;;;;;-2.87;55.00;100834.09;7388829;19;20094;-61
2021/12/26 02:40:00;;;;;;;4.18;2.50;;;;;;;-2.87;54.86;100831.53;7389324;19;20349;-61
2021/12/26 02:42:29;;;;;;;4.32;2.60;;;;;;;-2.88;54.82;100825.53;7389305;19;20352;-63
2021/12/26 02:44:58;;;;;;;5.13;2.70;;;;;;;-2.85;55.08;100822.13;7387187;19;20038;-63
2021/12/26 02:47:35;;;;;;;5.15;2.88;;;;;;;-2.82;55.83;100815.34;7385976;19;20066;-61
2021/12/26 02:50:07;;;;;;;4.93;2.55;;;;;;;-2.83;54.89;100820.47;7387090;19;20019;-59
2021/12/26 02:52:38;;;;;;;4.55;2.55;;;;;;;-2.86;54.52;100823.84;7388443;19;20025;-64
2021/12/26 02:55:09;;;;;;;4.27;2.80;;;;;;;-2.83;54.92;100821.31;7387802;19;20010;-61
2021/12/26 02:57:39;;;;;;;4.80;2.50;;;;;;;-2.83;54.79;100812.75;7386590;19;20479;-61
2021/12/26 03:00:11;;;;;;;4.07;2.45;;;;;;;-2.81;55.31;100811.06;7386477;19;20331;-62
2021/12/26 03:02:42;;;;;;;5.72;2.60;;;;;;;-2.82;55.05;100807.66;7386141;19;20023;-62
2021/12/26 03:05:12;;;;;;;5.20;2.75;;;;;;;-2.88;54.01;100807.59;7386443;19;20332;-58
2021/12/26 03:07:44;;;;;;;3.72;2.47;;;;;;;-2.89;54.48;100803.31;7385908;19;20022;-61
2021/12/26 03:10:21;;;;;;;4.30;2.30;;;;;;;-2.91;54.12;100799.00;7386092;19;20023;-63
2021/12/26 03:12:50;;;;;;;4.10;2.40;;;;;;;-2.99;54.06;100804.06;7387769;19;20014;-64
2021/12/26 03:15:19;;;;;;;5.15;2.65;;;;;;;-2.92;55.15;100797.25;7386320;19;20129;-61
2021/12/26 03:17:48;;;;;;;4.70;2.50;;;;;;;-2.93;54.88;100795.56;7387525;19;20015;-60
2021/12/26 03:20:19;;;;;;;4.40;2.22;;;;;;;-2.94;54.41;100801.53;7391024;19;20010;-60
2021/12/26 03:22:51;;;;;;;4.80;2.95;;;;;;;-3.01;53.93;100808.28;7389855;19;20014;-59
2021/12/26 03:25:22;;;;;;;6.40;2.50;;;;;;;-2.95;54.26;100808.38;7388510;19;20082;-60
2021/12/26 03:27:52;;;;;;;4.88;2.83;;;;;;;-2.99;54.07;100801.50;7388215;19;20086;-62
2021/12/26 03:30:24;;;;;;;4.95;2.88;;;;;;;-2.95;54.27;100805.81;7390199;19;20007;-63
2021/12/26 03:32:54;;;;;;;5.27;2.50;;;;;;;-2.94;54.16;100798.97;7388945;19;20124;-62
2021/12/26 03:35:25;;;;;;;5.05;2.53;;;;;;;-3.06;53.25;100804.81;7387374;19;20126;-64
2021/12/26 03:37:57;;;;;;;6.18;2.78;;;;;;;-3.01;53.67;100810.84;7386943;19;20467;-62
2021/12/26 03:40:26;;;;;;;5.40;2.47;;;;;;;-3.04;53.66;100798.84;7394038;19;20015;-59
2021/12/26 03:42:55;;;;;;;4.13;2.50;;;;;;;-3.01;55.03;100804.03;7397697;19;20027;-61
2021/12/26 03:45:24;;;;;;;4.85;2.78;;;;;;;-3.04;54.19;100806.53;7395897;19;20043;-56
2021/12/26 03:47:53;;;;;;;4.30;2.78;;;;;;;-3.03;54.43;100809.97;7395565;19;20044;-57
2021/12/26 03:50:27;;;;;;;4.20;2.53;;;;;;;-3.06;54.07;100807.38;7397078;19;20010;-63
2021/12/26 03:53:00;;;;;;;5.32;2.72;;;;;;;-3.04;53.95;100806.53;7392618;19;20018;-62
2021/12/26 03:55:29;;;;;;;3.75;2.35;;;;;;;-3.03;54.13;100807.41;7393190;19;20018;-61
2021/12/26 03:57:58;;;;;;;3.88;2.33;;;;;;;-2.98;55.10;100806.63;7391570;19;20347;-61
2021/12/26 04:00:29;;;;;;;3.67;2.50;;;;;;;-2.91;55.27;100799.84;7391714;19;20018;-62
2021/12/26 04:02:59;;;;;;;3.85;2.60;;;;;;;-2.99;53.89;100804.06;7391933;19;20014;-59
2021/12/26 04:05:28;;;;;;;4.22;2.53;;;;;;;-3.02;53.59;100796.34;7392904;19;20390;-62
2021/12/26 04:07:59;;;;;;;5.05;2.60;;;;;;;-2.95;54.62;100803.25;7390183;19;20011;-59
2021/12/26 04:10:28;;;;;;;5.70;3.03;;;;;;;-2.96;54.58;100804.09;7392024;19;20017;-61
2021/12/26 04:12:58;;;;;;;5.22;2.72;;;;;;;-3.00;54.09;100800.59;7392622;19;20011;-61
2021/12/26 04:15:28;;;;;;;3.55;2.20;;;;;;;-2.99;53.92;100796.38;7393344;19;20022;-60
2021/12/26 04:17:57;;;;;;;5.63;2.63;;;;;;;-3.02;53.95;100797.19;7390412;19;20021;-63
2021/12/26 04:20:28;;;;;;;3.75;2.40;;;;;;;-3.03;53.95;100787.75;7391452;19;20017;-60
2021/12/26 04:23:00;;;;;;;4.32;2.10;;;;;;;-3.05;54.27;100791.16;7393689;19;20018;-60
2021/12/26 04:25:30;;;;;;;4.40;2.30;;;;;;;-3.11;53.87;100791.94;7391112;19;20044;-59
2021/12/26 04:27:59;;;;;;;3.67;2.60;;;;;;;-3.08;53.74;100788.56;7391187;19;20037;-60
2021/12/26 04:30:28;;;;;;;4.18;2.63;;;;;;;-3.16;53.66;100791.88;7391622;19;20320;-59
2021/12/26 04:32:58;;;;;;;4.13;2.10;;;;;;;-3.22;53.65;100786.72;7391339;19;20359;-58
2021/12/26 04:35:27;;;;;;;5.15;2.50;;;;;;;-3.26;54.22;100787.50;7391035;19;20359;-60
2021/12/26 04:37:56;;;;;;;5.22;2.53;;;;;;;-3.22;54.49;100779.03;7391158;19;20025;-58
2021/12/26 04:40:27;;;;;;;4.45;2.55;;;;;;;-3.22;54.64;100778.16;7390793;19;20088;-62
2021/12/26 04:42:56;;;;;;;4.03;2.22;;;;;;;-3.26;54.13;100774.69;7392757;19;20030;-59
2021/12/26 04:45:26;;;;;;;3.55;2.30;;;;;;;-3.29;54.07;100773.81;7392553;19;20437;-61
2021/12/26 04:47:55;;;;;;;3.55;2.45;;;;;;;-3.26;54.36;100772.13;7389463;19;20015;-58
2021/12/26 04:50:27;;;;;;;4.10;2.55;;;;;;;-3.25;54.50;100770.41;7390896;19;20029;-61
2021/12/26 04:52:56;;;;;;;4.30;2.60;;;;;;;-3.22;54.29;100762.78;7390550;19;20033;-59
2021/12/26 04:55:30;;;;;;;3.92;2.10;;;;;;;-3.26;54.12;100754.19;7391437;19;20018;-61
2021/12/26 04:58:00;;;;;;;5.05;2.42;;;;;;;-3.21;54.43;100749.13;7390816;19;20359;-55
2021/12/26 05:00:32;;;;;;;4.30;2.67;;;;;;;-3.25;54.32;100762.72;7392367;19;20014;-62
2021/12/26 05:03:03;;;;;;;4.88;2.75;;;;;;;-3.34;53.63;100764.38;7390977;19;20010;-60
2021/12/26 05:05:32;;;;;;;3.95;2.22;;;;;;;-3.27;54.72;100769.56;7392327;19;20017;-59
2021/12/26 05:08:01;;;;;;;5.35;2.50;;;;;;;-3.35;53.96;100762.63;7394783;19;20077;-55
2021/12/26 05:10:33;;;;;;;3.70;2.08;;;;;;;-3.26;54.91;100761.03;7390922;19;20006;-60
2021/12/26 05:13:04;;;;;;;4.63;2.70;;;;;;;-3.37;53.51;100763.47;7390064;19;20011;-60
2021/12/26 05:15:33;;;;;;;3.38;2.10;;;;;;;-3.38;53.88;100762.59;7390161;19;20018;-60
2021/12/26 05:18:02;;;;;;;4.82;2.53;;;;;;;-3.30;54.33;100760.13;7389136;19;20020;-60
2021/12/26 05:20:31;;;;;;;4.40;2.40;;;;;;;-3.36;53.69;100754.94;7390346;19;20010;-59
2021/12/26 05:23:01;;;;;;;4.32;2.45;;;;;;;-3.46;53.41;100756.53;7389662;19;20018;-58
2021/12/26 05:25:32;;;;;;;4.03;2.55;;;;;;;-3.42;53.85;100749.75;7390394;19;20418;-59
2021/12/26 05:28:01;;;;;;;4.25;2.45;;;;;;;-3.46;53.46;100745.44;7391253;19;20355;-58
2021/12/26 05:30:30;;;;;;;5.07;2.38;;;;;;;-3.50;53.57;100744.53;7389418;19;20025;-61
2021/12/26 05:33:00;;;;;;;5.20;2.17;;;;;;;-3.41;54.62;100743.75;7389164;19;20010;-58
2021/12/26 05:35:30;;;;;;;4.43;2.42;;;;;;;-3.33;54.85;100737.88;7390567;19;20014;-59
2021/12/26 05:37:59;;;;;;;3.80;2.30;;;;;;;-3.34;54.38;100731.06;7389183;19;20010;-58
2021/12/26 05:40:28;;;;;;;5.03;2.70;;;;;;;-3.38;53.54;100739.56;7391220;19;20014;-57
2021/12/26 05:42:59;;;;;;;4.50;2.70;;;;;;;-3.35;53.82;100744.72;7389462;19;20045;-59
2021/12/26 05:45:28;;;;;;;4.03;2.38;;;;;;;-3.36;53.70;100739.56;7388554;19;20447;-58
2021/12/26 05:47:57;;;;;;;4.80;2.60;;;;;;;-3.36;54.05;100735.28;7387848;19;20014;-62
2021/12/26 05:50:26;;;;;;;6.13;2.60;;;;;;;-3.42;53.84;100740.34;7387790;19;20015;-59
2021/12/26 05:52:55;;;;;;;3.53;2.10;;;;;;;-3.50;53.72;100737.69;7388515;19;20021;-59
2021/12/26 05:55:24;;;;;;;4.53;2.50;;;;;;;-3.53;53.71;100742.78;7389564;19;20136;-59
2021/12/26 05:57:53;;;;;;;3.35;2.08;;;;;;;-3.48;54.10;100733.47;7387179;19;20533;-63
2021/12/26 06:00:24;;;;;;;4.40;2.42;;;;;;;-3.39;54.35;100732.69;7389517;19;20015;-59
2021/12/26 06:02:54;;;;;;;3.53;2.17;;;;;;;-3.33;54.48;100730.19;7385180;19;20011;-59
2021/12/26 06:05:24;;;;;;;4.60;2.85;;;;;;;-3.29;54.21;100727.69;7388515;19;20018;-63
2021/12/26 06:07:53;;;;;;;3.35;2.38;;;;;;;-3.20;54.81;100725.22;7386996;19;20068;-59
2021/12/26 06:10:22;;;;;;;4.25;2.70;;;;;;;-3.21;54.36;100726.06;7388649;19;20022;-59
2021/12/26 06:12:51;;;;;;;4.30;2.22;;;;;;;-3.23;53.99;100726.03;7389052;19;20011;-59
2021/12/26 06:15:19;;;;;;;4.13;2.40;;;;;;;-3.18;54.73;100731.19;7388024;19;20489;-61
2021/12/26 06:17:51;;;;;;;3.80;2.20;;;;;;;-3.16;54.53;100734.66;7386319;19;20011;-57
2021/12/26 06:20:20;;;;;;;4.20;2.40;;;;;;;-3.06;55.34;100725.38;7387542;19;20014;-59
2021/12/26 06:22:49;;;;;;;4.05;2.40;;;;;;;-3.07;55.29;100723.63;7387228;19;20018;-59
2021/12/26 06:25:18;;;;;;;3.45;2.00;;;;;;;-3.07;54.43;100727.06;7388531;19;20475;-60
2021/12/26 06:27:47;;;;;;;4.93;2.45;;;;;;;-3.07;54.35;100723.63;7386557;19;20329;-58
2021/12/26 06:30:16;;;;;;;5.57;2.80;;;;;;;-3.05;54.07;100724.50;7387622;19;20022;-59
2021/12/26 06:32:45;;;;;;;5.03;2.63;;;;;;;-2.99;54.83;100722.88;7387210;19;20019;-59
2021/12/26 06:35:17;;;;;;;3.53;2.13;;;;;;;-3.06;54.39;100720.25;7386549;19;20021;-62
2021/12/26 06:37:46;;;;;;;5.18;2.65;;;;;;;-3.08;54.06;100720.22;7385753;19;20033;-61
2021/12/26 06:40:15;;;;;;;5.43;2.83;;;;;;;-3.07;53.98;100723.63;7386674;19;20443;-60
2021/12/26 06:42:46;;;;;;;4.20;2.47;;;;;;;-3.06;54.14;100718.53;7387098;19;20018;-58
2021/12/26 06:45:18;;;;;;;3.83;2.20;;;;;;;-3.04;54.31;100713.41;7386185;19;20019;-58
2021/12/26 06:47:51;;;;;;;4.47;2.50;;;;;;;-2.99;54.39;100711.78;7387844;19;20011;-61
2021/12/26 06:50:23;;;;;;;5.38;2.47;;;;;;;-2.96;54.31;100706.66;7388545;19;20010;-57
2021/12/26 06:52:52;;;;;;;;;;;;;;;-2.96;54.57;100714.34;7387071;19;20492;-61
2021/12/26 06:55:20;;;;;;;4.93;2.70;;;;;;;-2.95;54.14;100705.81;7385998;19;19986;-61
2021/12/26 06:57:49;;;;;;;5.38;2.30;;;;;;;-2.91;54.51;100712.69;7385017;19;20019;-63
2021/12/26 07:00:19;;;;;;;3.80;2.50;;;;;;;-2.93;54.58;100708.41;7386693;19;20006;-61
2021/12/26 07:02:49;;;;;;;4.57;2.50;;;;;;;-2.85;54.65;100710.19;7388090;19;20490;-61
2021/12/26 07:05:18;;;;;;;4.35;2.50;;;;;;;-2.83;54.59;100707.63;7386749;19;20476;-62
2021/12/26 07:07:49;;;;;;;4.78;2.58;;;;;;;-2.81;54.47;100711.06;7385156;19;20820;-61
2021/12/26 07:10:20;;;;;;;5.10;2.63;;;;;;;-2.81;54.57;100714.50;7387409;19;20320;-56
2021/12/26 07:12:49;;;;;;;5.47;2.92;;;;;;;-2.87;54.25;100708.44;7386971;19;20034;-57
2021/12/26 07:15:18;;;;;;;4.70;2.65;;;;;;;-2.90;54.56;100709.28;7388383;19;20015;-55
2021/12/26 07:17:46;;;;;;;4.53;2.75;;;;;;;-2.83;55.51;100720.47;7392373;19;20014;-55
2021/12/26 07:20:16;;;;;;;4.88;2.80;;;;;;;-2.82;55.62;100715.34;7393858;19;20015;-58
2021/12/26 07:22:46;;;;;;;4.80;2.70;;;;;;;-2.74;55.50;100717.09;7395136;19;20432;-60
2021/12/26 07:25:18;;;;;;;4.20;2.50;;;;;;;-2.70;55.54;100724.00;7391972;19;20015;-61
2021/12/26 07:27:46;;;;;;;4.43;2.70;;;;;;;-2.67;55.61;100724.00;7390001;19;20121;-61
2021/12/26 07:30:15;;;;;;;5.30;2.60;;;;;;;-2.71;55.58;100712.84;7394434;19;20021;-59
2021/12/26 07:32:44;;;;;;;6.30;2.78;;;;;;;-2.70;55.57;100712.00;7391241;19;20015;-60
2021/12/26 07:35:13;;;;;;;4.90;2.60;;;;;;;-2.64;56.17;100726.59;7391369;19;20011;-60
2021/12/26 07:37:42;;;;;;;3.80;2.60;;;;;;;-2.65;56.17;100719.75;7391071;19;20026;-60
2021/12/26 07:40:13;;;;;;;5.05;2.58;;;;;;;-2.57;56.45;100720.66;7393844;19;20053;-59
2021/12/26 07:42:44;;;;;;;4.80;2.75;;;;;;;-2.61;55.88;100726.63;7394378;19;20011;-61
2021/12/26 07:45:13;;;;;;;4.73;2.80;;;;;;;-2.61;56.02;100719.81;7390781;19;20074;-55
2021/12/26 07:47:43;;;;;;;4.80;2.70;;;;;;;-2.53;56.89;100721.56;7393359;19;20015;-59
2021/12/26 07:50:12;;;;;;;5.60;3.10;;;;;;;-2.48;56.99;100712.19;7394635;19;20014;-60
2021/12/26 07:52:43;;;;;;;3.83;2.38;;;;;;;-2.43;57.58;100718.22;7391713;19;20010;-57
2021/12/26 07:55:13;;;;;;;5.55;2.35;;;;;;;-2.41;57.32;100719.06;7390864;19;20090;-62
2021/12/26 07:57:48;;;;;;;5.00;2.70;;;;;;;-2.43;56.52;100718.22;7392713;19;20529;-62
2021/12/26 08:00:19;;;;;;;5.72;3.00;;;;;;;-2.40;56.25;100717.38;7391291;19;20011;-62
2021/12/26 08:02:48;;;;;;;4.40;3.00;;;;;;;-2.40;56.49;100712.25;7394247;19;20011;-55
2021/12/26 08:05:18;;;;;;;4.88;2.63;;;;;;;-2.40;56.50;100707.13;7392030;19;20014;-61
2021/12/26 08:07:47;;;;;;;6.18;2.72;;;;;;;-2.42;56.10;100709.69;7392646;19;20038;-62
2021/12/26 08:10:16;;;;;;;4.60;2.72;;;;;;;-2.47;56.52;100711.34;7393722;19;20033;-61
2021/12/26 08:12:47;;;;;;;4.85;2.83;;;;;;;-2.52;56.01;100703.63;7393442;19;20015;-63
2021/12/26 08:15:16;;;;;;;7.40;3.05;;;;;;;-2.56;56.21;100717.25;7390716;19;20486;-61
2021/12/26 08:17:45;;;;;;;3.85;2.50;;;;;;;-2.57;56.37;100715.53;7389772;19;20019;-58
2021/12/26 08:20:15;;;;;;;4.88;2.95;;;;;;;-2.53;56.45;100716.44;7391304;19;20340;-61
2021/12/26 08:22:43;;;;;;;6.80;2.90;;;;;;;-2.52;56.49;100710.44;7391237;19;20018;-63
2021/12/26 08:25:14;;;;;;;7.72;2.70;;;;;;;-2.52;56.79;100715.56;7391080;19;20022;-60
2021/12/26 08:27:43;;;;;;;5.30;2.63;;;;;;;-2.46;56.86;100713.91;7391620;19;20086;-52
2021/12/26 08:30:15;;;;;;;5.88;2.80;;;;;;;-2.45;56.12;100709.63;7393920;19;20025;-49
2021/12/26 08:32:44;;;;;;;4.22;2.67;;;;;;;-2.41;56.34;100716.50;7390946;19;20025;-50
2021/12/26 08:35:13;;;;;;;4.93;2.88;;;;;;;-2.48;56.02;100715.63;7390645;19;20050;-50
2021/12/26 08:37:45;;;;;;;5.00;3.00;;;;;;;-2.47;56.43;100712.19;7390394;19;20028;-54
2021/12/26 08:40:15;;;;;;;6.35;2.85;;;;;;;-2.49;56.19;100719.03;7390995;19;20018;-53
2021/12/26 08:42:44;;;;;;;4.70;2.85;;;;;;;-2.41;56.13;100720.78;7391067;19;20126;-51
2021/12/26 08:45:16;;;;;;;5.43;3.03;;;;;;;-2.36;56.82;100719.97;7390061;19;20002;-50
2021/12/26 08:47:46;;;;;;;5.65;3.10;;;;;;;-2.32;56.63;100718.28;7390140;19;20375;-49
2021/12/26 08:50:15;;;;;;;4.82;2.97;;;;;;;-2.32;56.07;100728.53;7390853;19;20475;-49
2021/12/26 08:52:44;;;;;;;4.20;3.00;;;;;;;-2.34;56.19;100722.56;7390862;19;20032;-49
2021/12/26 08:55:13;;;;;;;4.15;2.70;;;;;;;-2.32;56.27;100725.97;7391373;19;20119;-51
2021/12/26 08:57:42;;;;;;;6.30;3.05;;;;;;;-2.32;56.91;100718.28;7390268;19;20471;-50
2021/12/26 09:00:17;;;;;;;4.95;3.30;;;;;;;-2.31;56.84;100726.00;7391415;19;20022;-53
2021/12/26 09:02:46;;;;;;;5.15;3.25;;;;;;;-2.29;56.70;100723.47;7393280;19;20014;-48
2021/12/26 09:05:16;;;;;;;7.13;3.60;;;;;;;-2.26;57.15;100716.63;7390183;19;20011;-48
2021/12/26 09:07:45;;;;;;;9.80;4.95;;;;;;;-2.23;57.47;100714.94;7389964;19;20505;-49
2021/12/26 09:10:16;;;;;;;6.45;3.47;;;;;;;-2.13;57.50;100715.00;7392595;19;20025;-50
2021/12/26 09:12:45;;;;;;;6.47;3.53;;;;;;;-2.13;57.02;100711.56;7389223;19;20057;-52
2021/12/26 09:15:17;;;;;;;6.10;3.38;;;;;;;-2.09;57.42;100709.03;7388952;19;20016;-49
2021/12/26 09:17:46;;;;;;;5.55;3.60;;;;;;;-2.11;56.97;100709.88;7388619;19;20022;-49
2021/12/26 09:20:15;;;;;;;5.32;3.50;;;;;;;-2.14;56.92;100705.56;7388294;19;20103;-49
2021/12/26 09:22:45;;;;;;;6.03;3.30;;;;;;;-2.02;57.11;100706.50;7391064;19;20029;-48
2021/12/26 09:25:14;;;;;;;6.97;3.55;;;;;;;-1.97;57.15;100702.25;7388675;19;20029;-51
2021/12/26 09:27:43;;;;;;;5.38;3.60;;;;;;;-1.91;57.23;100704.84;7387554;19;20026;-49
2021/12/26 09:30:16;;;;;;;5.97;3.67;;;;;;;-1.88;56.93;100704.00;7389218;19;20019;-52
2021/12/26 09:32:45;;;;;;;5.93;3.05;;;;;;;-1.85;56.92;100701.44;7388707;19;20074;-49
2021/12/26 09:35:16;;;;;;;7.13;3.83;;;;;;;-1.74;57.42;100699.78;7390273;19;20011;-48
2021/12/26 09:37:45;;;;;;;7.63;3.92;;;;;;;-1.74;56.46;100702.34;7386306;19;20018;-49
2021/12/26 09:40:16;;;;;;;5.45;3.40;;;;;;;-1.66;56.74;100698.13;7388834;19;20472;-49
2021/12/26 09:42:47;;;;;;;5.00;3.30;;;;;;;-1.57;57.22;100695.56;7388562;19;20034;-50
2021/12/26 09:45:21;;;;;;;7.78;3.47;;;;;;;-1.53;56.67;100704.16;7388988;19;20017;-49
2021/12/26 09:47:51;;;;;;;6.47;3.70;;;;;;;-1.44;57.16;100696.47;7387940;19;20025;-47
2021/12/26 09:50:22;;;;;;;6.25;3.78;;;;;;;-1.36;56.58;100699.06;7389156;19;20018;-48
2021/12/26 09:52:53;;;;;;;5.90;3.80;;;;;;;-1.27;56.61;100693.94;7388792;19;20130;-52
2021/12/26 09:55:22;;;;;;;5.43;3.47;;;;;;;-1.13;56.65;100700.81;7388384;19;20763;-49
2021/12/26 09:57:51;;;;;;;6.03;3.85;;;;;;;-1.10;55.91;100695.69;7388100;19;20038;-51
2021/12/26 10:00:28;;;;;;;5.68;3.65;;;;;;;-1.08;56.14;100699.97;7388129;19;20026;-49
2021/12/26 10:03:16;;;;;;;7.72;4.05;;;;;;;-1.05;56.02;100697.44;7388651;19;20014;-49
2021/12/26 10:06:02;;;;;;;6.78;3.63;;;;;;;-0.93;57.18;100699.16;7388312;19;20448;-53
2021/12/26 10:08:32;;;;;;;6.80;3.65;;;;;;;-0.90;56.68;100690.59;7389786;19;20018;-49
2021/12/26 10:11:14;;;;;;;6.13;4.07;;;;;;;-0.84;56.69;100690.56;7392399;19;20018;-50
2021/12/26 10:13:49;;;;;;;6.18;3.70;;;;;;;-0.81;57.43;100697.44;7389626;19;20014;-53
2021/12/26 10:16:23;;;;;;;7.57;4.13;;;;;;;-0.82;57.02;100695.72;7387876;19;20027;-53
2021/12/26 10:18:53;;;;;;;7.45;4.03;;;;;;;-0.82;57.28;100688.84;7388760;19;20014;-51
2021/12/26 10:21:41;;;;;;;5.38;3.50;;;;;;;-0.80;57.30;100689.72;7387342;19;20018;-54
2021/12/26 10:24:16;;;;;;;7.18;3.80;;;;;;;-0.83;56.82;100689.72;7388164;19;20454;-49
2021/12/26 10:26:46;;;;;;;6.25;4.00;;;;;;;-0.75;57.47;100682.00;7387014;19;20492;-50
2021/12/26 10:29:19;;;;;;;5.93;3.90;;;;;;;-0.75;57.64;100680.28;7387671;19;20014;-50
2021/12/26 10:31:59;;;;;;;6.65;3.72;;;;;;;-0.65;58.20;100676.00;7387584;19;20372;-54
2021/12/26 10:34:32;;;;;;;8.63;4.47;;;;;;;-0.56;58.26;100672.56;7388783;19;20443;-51
2021/12/26 10:37:04;;;;;;;7.18;4.60;;;;;;;-0.49;58.57;100665.69;7387212;19;20021;-48
2021/12/26 10:39:35;;;;;;;6.53;4.53;;;;;;;-0.41;57.71;100656.25;7388373;19;20002;-54
2021/12/26 10:42:06;;;;;;;8.90;4.55;;;;;;;-0.46;57.29;100653.69;7386664;19;20010;-50
2021/12/26 10:44:38;;;;;;;6.32;4.05;;;;;;;-0.48;56.98;100654.53;7390630;19;20015;-49
2021/12/26 10:47:11;;;;;;;8.17;4.13;;;;;;;-0.46;57.64;100650.22;7385499;19;20011;-53
2021/12/26 10:49:50;;;;;;;8.52;4.35;;;;;;;-0.40;57.79;100642.50;7389995;19;20021;-53
2021/12/26 10:52:22;;;;;;;7.82;4.40;;;;;;;-0.38;57.25;100645.94;7393301;19;20014;-53
2021/12/26 10:54:58;;;;;;;7.72;5.03;;;;;;;-0.40;57.07;100640.78;7396627;19;20394;-51
2021/12/26 10:57:30;;;;;;;6.95;4.10;;;;;;;-0.41;57.74;100646.78;7392665;19;20026;-54
2021/12/26 11:00:13;;;;;;;7.53;4.57;;;;;;;-0.43;57.58;100632.22;7394811;19;20031;-54
2021/12/26 11:02:46;;;;;;;6.85;4.68;;;;;;;-0.39;57.92;100639.94;7392659;19;20018;-52
2021/12/26 11:05:18;;;;;;;6.63;4.72;;;;;;;-0.46;57.71;100638.25;7394288;19;20021;-54
2021/12/26 11:07:54;;;;;;;7.20;4.97;;;;;;;-0.35;58.32;100635.63;7392433;19;20018;-54
2021/12/26 11:10:27;;;;;;;7.18;4.78;;;;;;;-0.29;58.17;100629.59;7393227;19;20011;-54
2021/12/26 11:12:58;;;;;;;7.32;4.80;;;;;;;-0.25;58.07;100626.16;7396381;19;20722;-54
2021/12/26 11:15:29;;;;;;;8.40;5.13;;;;;;;-0.23;57.83;100634.72;7392688;19;20018;-54
2021/12/26 11:18:02;;;;;;;6.93;4.88;;;;;;;-0.15;58.41;100621.84;7391661;19;20014;-53
2021/12/26 11:20:36;;;;;;;7.85;5.28;;;;;;;-0.08;58.46;100611.50;7392883;19;20037;-53
2021/12/26 11:23:09;;;;;;;7.47;5.07;;;;;;;0.02;58.45;100611.50;7392918;19;20018;-54
2021/12/26 11:25:40;;;;;;;8.20;5.07;;;;;;;0.07;58.47;100612.31;7395770;19;20526;-53
2021/12/26 11:28:09;;;;;;;9.07;5.25;;;;;;;0.12;58.47;100608.84;7391561;19;20017;-54
2021/12/26 11:30:38;;;;;;;8.63;5.05;;;;;;;0.10;58.23;100610.59;7394213;19;20018;-51
2021/12/26 11:33:10;;;;;;;7.07;4.60;;;;;;;0.23;59.54;100600.19;7392866;19;20014;-50
2021/12/26 11:35:40;;;;;;;8.55;5.70;;;;;;;0.33;59.79;100601.91;7392882;19;20013;-51
2021/12/26 11:38:14;;;;;;;8.02;4.95;;;;;;;0.31;59.25;100599.28;7392099;19;20038;-49
2021/12/26 11:40:43;;;;;;;8.48;5.75;;;;;;;0.34;59.12;100599.31;7392076;19;20014;-50
2021/12/26 11:43:40;;;;;;;8.95;5.63;;;;;;;0.31;58.91;100593.28;7392534;19;20443;-50